الصفحة الرئيسية
METAR-TAF:

METAR-TAF

مطار :

Puerto Lempira, هندوراس

دائرة عرض: 15-13N, خط طول: 083-48W, ارتفاع: 13 متر

مراقبة الطقس الحالي

تاريخ ووقت الإصدار 14ساعات و 56 دقيقة قبل الساعة 18:00UTC
ريح 8 عقدة من الشرق/الشمال الشرقي
درجة الحرارة 32°درجة مئوية
الرطوبة 67%
ضغط 1013 hPa
الرؤية 10 كم أو أكثر
غيوم متفرقة على ارتفاع 2800 قدم, مزن ركامية عمودية.
العجاج

METAR: MHPL 181800Z 06008KT 9999 SCT028TCU 32/25 Q1013 TCU ALL HZ

زمن: 02:56 (08:56 UTC)


TAF: مفقودة

أرصاد الطقس والتوقعات من أكثر من 4000 مطار (تقارير الطقس للمطار METAR والتنبؤ بالطقس بالمطارTAF).

المحطات المتاحة هي النقط الصفراء والحمراء على الخريطة.

حرك المؤشر فوق النقطة لمعرفة اسم المحطة.

ثم انقر لمعرفة أرصاد وتوقعات الطقس.

لتغيير الخارطة: اضغط على الأزرار الخضراء مع رمز الصليب الأسود للتكبير. على الزر الأخضر مع شرطة للتصغير، أو على الأسهم الخضراء للخرائط المجاورة.


METAR-TAF: